sensor_id;sensor_type;location;lat;lon;timestamp;pressure;altitude;pressure_sealevel;temperature;humidity
59877;BME280;45749;51.140;17.184;2022-07-24T00:01:58;100395.61;;;19.60;78.79
59877;BME280;45749;51.140;17.184;2022-07-24T00:04:25;100396.11;;;19.60;78.99
59877;BME280;45749;51.140;17.184;2022-07-24T00:06:51;100389.94;;;19.55;79.01
59877;BME280;45749;51.140;17.184;2022-07-24T00:09:17;100398.30;;;19.52;79.07
59877;BME280;45749;51.140;17.184;2022-07-24T00:11:43;100396.80;;;19.50;78.93
59877;BME280;45749;51.140;17.184;2022-07-24T00:14:10;100395.64;;;19.48;78.78
59877;BME280;45749;51.140;17.184;2022-07-24T00:16:36;100395.10;;;19.44;79.04
59877;BME280;45749;51.140;17.184;2022-07-24T00:19:03;100394.94;;;19.38;79.14
59877;BME280;45749;51.140;17.184;2022-07-24T00:21:29;100393.45;;;19.35;79.26
59877;BME280;45749;51.140;17.184;2022-07-24T00:23:54;100396.28;;;19.34;79.24
59877;BME280;45749;51.140;17.184;2022-07-24T00:26:21;100397.44;;;19.31;79.32
59877;BME280;45749;51.140;17.184;2022-07-24T00:28:46;100400.30;;;19.30;79.18
59877;BME280;45749;51.140;17.184;2022-07-24T00:31:14;100395.60;;;19.28;79.28
59877;BME280;45749;51.140;17.184;2022-07-24T00:33:40;100393.61;;;19.26;79.21
59877;BME280;45749;51.140;17.184;2022-07-24T00:36:07;100392.28;;;19.26;79.46
59877;BME280;45749;51.140;17.184;2022-07-24T00:38:33;100393.61;;;19.26;79.61
59877;BME280;45749;51.140;17.184;2022-07-24T00:40:59;100393.26;;;19.25;79.67
59877;BME280;45749;51.140;17.184;2022-07-24T00:43:25;100391.09;;;19.24;79.64
59877;BME280;45749;51.140;17.184;2022-07-24T00:45:51;100390.58;;;19.25;79.77
59877;BME280;45749;51.140;17.184;2022-07-24T00:48:17;100396.11;;;19.23;79.82
59877;BME280;45749;51.140;17.184;2022-07-24T00:50:44;100393.59;;;19.17;79.87
59877;BME280;45749;51.140;17.184;2022-07-24T00:53:10;100395.58;;;19.11;80.11
59877;BME280;45749;51.140;17.184;2022-07-24T00:55:36;100392.91;;;19.07;80.31
59877;BME280;45749;51.140;17.184;2022-07-24T00:58:03;100390.74;;;19.07;80.38
59877;BME280;45749;51.140;17.184;2022-07-24T01:00:29;100388.90;;;19.07;80.25
59877;BME280;45749;51.140;17.184;2022-07-24T01:02:56;100392.73;;;19.05;80.46
59877;BME280;45749;51.140;17.184;2022-07-24T01:05:22;100389.05;;;19.02;80.40
59877;BME280;45749;51.140;17.184;2022-07-24T01:07:48;100391.39;;;19.01;80.41
59877;BME280;45749;51.140;17.184;2022-07-24T01:10:14;100391.22;;;18.98;80.33
59877;BME280;45749;51.140;17.184;2022-07-24T01:12:40;100390.89;;;18.97;80.16
59877;BME280;45749;51.140;17.184;2022-07-24T01:15:09;100386.70;;;18.94;80.38
59877;BME280;45749;51.140;17.184;2022-07-24T01:17:39;100394.22;;;18.95;80.49
59877;BME280;45749;51.140;17.184;2022-07-24T01:20:07;100393.06;;;18.93;80.56
59877;BME280;45749;51.140;17.184;2022-07-24T01:22:35;100392.73;;;18.92;80.33
59877;BME280;45749;51.140;17.184;2022-07-24T01:25:01;100389.19;;;18.92;80.36
59877;BME280;45749;51.140;17.184;2022-07-24T01:27:28;100384.02;;;18.90;80.27
59877;BME280;45749;51.140;17.184;2022-07-24T01:29:54;100382.87;;;18.89;80.06
59877;BME280;45749;51.140;17.184;2022-07-24T01:32:20;100387.86;;;18.88;80.21
59877;BME280;45749;51.140;17.184;2022-07-24T01:34:46;100383.34;;;18.84;80.00
59877;BME280;45749;51.140;17.184;2022-07-24T01:37:12;100391.36;;;18.80;80.37
59877;BME280;45749;51.140;17.184;2022-07-24T01:39:38;100388.50;;;18.78;80.60
59877;BME280;45749;51.140;17.184;2022-07-24T01:42:04;100390.34;;;18.77;80.73
59877;BME280;45749;51.140;17.184;2022-07-24T01:44:30;100384.48;;;18.73;80.47
59877;BME280;45749;51.140;17.184;2022-07-24T01:46:56;100388.94;;;18.69;80.45
59877;BME280;45749;51.140;17.184;2022-07-24T01:49:22;100392.80;;;18.66;80.35
59877;BME280;45749;51.140;17.184;2022-07-24T01:51:48;100386.42;;;18.59;80.46
59877;BME280;45749;51.140;17.184;2022-07-24T01:54:14;100390.39;;;18.51;80.64
59877;BME280;45749;51.140;17.184;2022-07-24T01:56:40;100387.34;;;18.42;80.79
59877;BME280;45749;51.140;17.184;2022-07-24T01:59:06;100385.81;;;18.35;80.97
59877;BME280;45749;51.140;17.184;2022-07-24T02:01:32;100392.34;;;18.37;80.91
59877;BME280;45749;51.140;17.184;2022-07-24T02:03:58;100387.33;;;18.38;80.87
59877;BME280;45749;51.140;17.184;2022-07-24T02:06:24;100390.13;;;18.32;80.97
59877;BME280;45749;51.140;17.184;2022-07-24T02:08:50;100388.60;;;18.25;81.11
59877;BME280;45749;51.140;17.184;2022-07-24T02:11:16;100385.23;;;18.19;81.00
59877;BME280;45749;51.140;17.184;2022-07-24T02:13:43;100387.54;;;18.10;81.02
59877;BME280;45749;51.140;17.184;2022-07-24T02:16:10;100388.81;;;18.02;81.23
59877;BME280;45749;51.140;17.184;2022-07-24T02:18:36;100390.27;;;17.96;81.28
59877;BME280;45749;51.140;17.184;2022-07-24T02:21:02;100390.76;;;17.92;81.50
59877;BME280;45749;51.140;17.184;2022-07-24T02:23:28;100389.59;;;17.90;81.99
59877;BME280;45749;51.140;17.184;2022-07-24T02:25:54;100392.27;;;17.90;82.03
59877;BME280;45749;51.140;17.184;2022-07-24T02:28:20;100390.06;;;17.90;82.04
59877;BME280;45749;51.140;17.184;2022-07-24T02:30:46;100388.40;;;17.89;82.08
59877;BME280;45749;51.140;17.184;2022-07-24T02:33:12;100382.03;;;17.86;82.04
59877;BME280;45749;51.140;17.184;2022-07-24T02:35:38;100390.72;;;17.84;82.09
59877;BME280;45749;51.140;17.184;2022-07-24T02:38:04;100386.36;;;17.83;82.42
59877;BME280;45749;51.140;17.184;2022-07-24T02:40:31;100392.67;;;17.77;82.36
59877;BME280;45749;51.140;17.184;2022-07-24T02:42:58;100393.28;;;17.75;82.49
59877;BME280;45749;51.140;17.184;2022-07-24T02:45:24;100395.09;;;17.71;82.31
59877;BME280;45749;51.140;17.184;2022-07-24T02:47:52;100396.53;;;17.61;82.22
59877;BME280;45749;51.140;17.184;2022-07-24T02:50:22;100392.14;;;17.56;82.36
59877;BME280;45749;51.140;17.184;2022-07-24T02:52:49;100397.28;;;17.53;82.63
59877;BME280;45749;51.140;17.184;2022-07-24T02:55:15;100400.81;;;17.54;82.58
59877;BME280;45749;51.140;17.184;2022-07-24T02:57:42;100399.11;;;17.53;82.46
59877;BME280;45749;51.140;17.184;2022-07-24T03:00:11;100404.81;;;17.54;82.60
59877;BME280;45749;51.140;17.184;2022-07-24T03:02:39;100405.95;;;17.51;82.73
59877;BME280;45749;51.140;17.184;2022-07-24T03:05:05;100408.95;;;17.52;82.96
59877;BME280;45749;51.140;17.184;2022-07-24T03:07:33;100405.45;;;17.52;83.06
59877;BME280;45749;51.140;17.184;2022-07-24T03:10:01;100410.78;;;17.52;83.10
59877;BME280;45749;51.140;17.184;2022-07-24T03:12:29;100413.13;;;17.51;83.14
59877;BME280;45749;51.140;17.184;2022-07-24T03:14:54;100414.92;;;17.50;83.13
59877;BME280;45749;51.140;17.184;2022-07-24T03:17:20;100417.79;;;17.53;83.36
59877;BME280;45749;51.140;17.184;2022-07-24T03:19:46;100418.62;;;17.53;83.27
59877;BME280;45749;51.140;17.184;2022-07-24T03:22:12;100414.15;;;17.54;83.11
59877;BME280;45749;51.140;17.184;2022-07-24T03:24:38;100421.48;;;17.56;83.01
59877;BME280;45749;51.140;17.184;2022-07-24T03:27:04;100419.31;;;17.55;83.19
59877;BME280;45749;51.140;17.184;2022-07-24T03:29:31;100424.32;;;17.54;83.23
59877;BME280;45749;51.140;17.184;2022-07-24T03:31:57;100427.95;;;17.53;83.36
59877;BME280;45749;51.140;17.184;2022-07-24T03:34:23;100432.46;;;17.53;83.41
59877;BME280;45749;51.140;17.184;2022-07-24T03:36:48;100435.62;;;17.52;83.50
59877;BME280;45749;51.140;17.184;2022-07-24T03:39:15;100440.13;;;17.52;83.57
59877;BME280;45749;51.140;17.184;2022-07-24T03:41:41;100438.60;;;17.49;83.68
59877;BME280;45749;51.140;17.184;2022-07-24T03:44:07;100441.58;;;17.46;83.79
59877;BME280;45749;51.140;17.184;2022-07-24T03:46:33;100446.77;;;17.48;83.94
59877;BME280;45749;51.140;17.184;2022-07-24T03:49:00;100446.27;;;17.48;83.96
59877;BME280;45749;51.140;17.184;2022-07-24T03:51:26;100445.94;;;17.47;84.08
59877;BME280;45749;51.140;17.184;2022-07-24T03:53:52;100447.08;;;17.45;84.00
59877;BME280;45749;51.140;17.184;2022-07-24T03:56:19;100451.58;;;17.44;84.14
59877;BME280;45749;51.140;17.184;2022-07-24T03:58:45;100451.08;;;17.45;84.28
59877;BME280;45749;51.140;17.184;2022-07-24T04:01:11;100460.25;;;17.46;84.35
59877;BME280;45749;51.140;17.184;2022-07-24T04:03:37;100453.58;;;17.46;84.45
59877;BME280;45749;51.140;17.184;2022-07-24T04:06:04;100454.37;;;17.43;84.49
59877;BME280;45749;51.140;17.184;2022-07-24T04:08:31;100450.19;;;17.40;84.57
59877;BME280;45749;51.140;17.184;2022-07-24T04:10:58;100449.84;;;17.39;84.70
59877;BME280;45749;51.140;17.184;2022-07-24T04:13:28;100451.35;;;17.38;84.70
59877;BME280;45749;51.140;17.184;2022-07-24T04:15:55;100450.68;;;17.40;84.75
59877;BME280;45749;51.140;17.184;2022-07-24T04:18:22;100447.52;;;17.40;84.70
59877;BME280;45749;51.140;17.184;2022-07-24T04:20:49;100452.18;;;17.38;84.62
59877;BME280;45749;51.140;17.184;2022-07-24T04:23:15;100450.34;;;17.39;84.93
59877;BME280;45749;51.140;17.184;2022-07-24T04:25:41;100447.34;;;17.38;84.82
59877;BME280;45749;51.140;17.184;2022-07-24T04:28:08;100451.18;;;17.39;84.90
59877;BME280;45749;51.140;17.184;2022-07-24T04:30:33;100444.84;;;17.40;84.83
59877;BME280;45749;51.140;17.184;2022-07-24T04:33:00;100450.02;;;17.38;84.95
59877;BME280;45749;51.140;17.184;2022-07-24T04:35:26;100450.34;;;17.39;85.00
59877;BME280;45749;51.140;17.184;2022-07-24T04:37:52;100448.98;;;17.34;84.95
59877;BME280;45749;51.140;17.184;2022-07-24T04:40:18;100452.98;;;17.34;85.17
59877;BME280;45749;51.140;17.184;2022-07-24T04:42:44;100456.81;;;17.36;85.20
59877;BME280;45749;51.140;17.184;2022-07-24T04:45:10;100455.48;;;17.36;85.26
59877;BME280;45749;51.140;17.184;2022-07-24T04:47:37;100461.02;;;17.39;85.28
59877;BME280;45749;51.140;17.184;2022-07-24T04:50:04;100461.22;;;17.41;85.09
59877;BME280;45749;51.140;17.184;2022-07-24T04:52:32;100465.22;;;17.41;85.21
59877;BME280;45749;51.140;17.184;2022-07-24T04:54:58;100468.72;;;17.42;85.21
59877;BME280;45749;51.140;17.184;2022-07-24T04:57:24;100466.55;;;17.41;85.27
59877;BME280;45749;51.140;17.184;2022-07-24T04:59:50;100470.19;;;17.40;85.33
59877;BME280;45749;51.140;17.184;2022-07-24T05:02:16;100476.92;;;17.44;85.37
59877;BME280;45749;51.140;17.184;2022-07-24T05:04:42;100485.95;;;17.47;85.28
59877;BME280;45749;51.140;17.184;2022-07-24T05:07:08;100490.29;;;17.48;85.18
59877;BME280;45749;51.140;17.184;2022-07-24T05:09:34;100484.95;;;17.48;85.09
59877;BME280;45749;51.140;17.184;2022-07-24T05:12:00;100487.13;;;17.49;85.20
59877;BME280;45749;51.140;17.184;2022-07-24T05:14:26;100490.32;;;17.52;85.32
59877;BME280;45749;51.140;17.184;2022-07-24T05:16:52;100494.66;;;17.53;85.34
59877;BME280;45749;51.140;17.184;2022-07-24T05:19:18;100495.66;;;17.52;85.07
59877;BME280;45749;51.140;17.184;2022-07-24T05:21:44;100495.86;;;17.55;85.24
59877;BME280;45749;51.140;17.184;2022-07-24T05:24:10;100499.19;;;17.57;85.11
59877;BME280;45749;51.140;17.184;2022-07-24T05:26:36;100500.05;;;17.57;85.01
59877;BME280;45749;51.140;17.184;2022-07-24T05:29:03;100509.42;;;17.62;84.94
59877;BME280;45749;51.140;17.184;2022-07-24T05:31:33;100509.25;;;17.63;84.97
59877;BME280;45749;51.140;17.184;2022-07-24T05:34:00;100515.45;;;17.64;84.78
59877;BME280;45749;51.140;17.184;2022-07-24T05:36:28;100516.62;;;17.65;84.95
59877;BME280;45749;51.140;17.184;2022-07-24T05:38:54;100523.62;;;17.66;84.87
59877;BME280;45749;51.140;17.184;2022-07-24T05:41:20;100518.46;;;17.65;84.75
59877;BME280;45749;51.140;17.184;2022-07-24T05:43:46;100520.46;;;17.67;84.96
59877;BME280;45749;51.140;17.184;2022-07-24T05:46:12;100521.13;;;17.65;84.79
59877;BME280;45749;51.140;17.184;2022-07-24T05:48:39;100523.30;;;17.65;84.92
59877;BME280;45749;51.140;17.184;2022-07-24T05:51:06;100530.66;;;17.67;84.73
59877;BME280;45749;51.140;17.184;2022-07-24T05:53:32;100527.00;;;17.68;84.67
59877;BME280;45749;51.140;17.184;2022-07-24T05:55:58;100524.36;;;17.72;84.59
59877;BME280;45749;51.140;17.184;2022-07-24T05:58:24;100528.42;;;17.76;84.52
59877;BME280;45749;51.140;17.184;2022-07-24T06:00:50;100524.95;;;17.80;84.56
59877;BME280;45749;51.140;17.184;2022-07-24T06:03:16;100525.98;;;17.83;84.34
59877;BME280;45749;51.140;17.184;2022-07-24T06:05:42;100530.68;;;17.85;84.51
59877;BME280;45749;51.140;17.184;2022-07-24T06:08:08;100531.41;;;17.91;84.60
59877;BME280;45749;51.140;17.184;2022-07-24T06:10:34;100528.93;;;17.94;84.32
59877;BME280;45749;51.140;17.184;2022-07-24T06:13:00;100531.23;;;17.93;84.03
59877;BME280;45749;51.140;17.184;2022-07-24T06:15:27;100537.77;;;17.94;83.84
59877;BME280;45749;51.140;17.184;2022-07-24T06:17:54;100539.00;;;18.00;83.72
59877;BME280;45749;51.140;17.184;2022-07-24T06:20:20;100543.67;;;18.02;83.54
59877;BME280;45749;51.140;17.184;2022-07-24T06:22:46;100545.70;;;18.04;83.38
59877;BME280;45749;51.140;17.184;2022-07-24T06:25:13;100544.72;;;18.09;83.46
59877;BME280;45749;51.140;17.184;2022-07-24T06:27:44;100540.08;;;18.11;83.04
59877;BME280;45749;51.140;17.184;2022-07-24T06:30:14;100544.28;;;18.14;83.55
59877;BME280;45749;51.140;17.184;2022-07-24T06:32:41;100547.11;;;18.16;83.48
59877;BME280;45749;51.140;17.184;2022-07-24T06:35:08;100536.29;;;18.18;83.42
59877;BME280;45749;51.140;17.184;2022-07-24T06:37:35;100542.98;;;18.22;83.47
59877;BME280;45749;51.140;17.184;2022-07-24T06:40:01;100544.20;;;18.27;83.22
59877;BME280;45749;51.140;17.184;2022-07-24T06:42:27;100540.72;;;18.31;82.95
59877;BME280;45749;51.140;17.184;2022-07-24T06:44:53;100536.73;;;18.35;82.58
59877;BME280;45749;51.140;17.184;2022-07-24T06:47:19;100542.10;;;18.39;82.43
59877;BME280;45749;51.140;17.184;2022-07-24T06:49:45;100541.14;;;18.44;82.14
59877;BME280;45749;51.140;17.184;2022-07-24T06:52:11;100541.67;;;18.48;82.00
59877;BME280;45749;51.140;17.184;2022-07-24T06:54:37;100542.55;;;18.53;81.93
59877;BME280;45749;51.140;17.184;2022-07-24T06:57:03;100541.06;;;18.58;81.43
59877;BME280;45749;51.140;17.184;2022-07-24T06:59:29;100543.61;;;18.64;80.58
59877;BME280;45749;51.140;17.184;2022-07-24T07:01:55;100539.95;;;18.69;80.70
59877;BME280;45749;51.140;17.184;2022-07-24T07:04:21;100547.87;;;18.74;80.86
59877;BME280;45749;51.140;17.184;2022-07-24T07:06:47;100543.40;;;18.79;79.84
59877;BME280;45749;51.140;17.184;2022-07-24T07:09:13;100534.89;;;18.84;78.97
59877;BME280;45749;51.140;17.184;2022-07-24T07:11:39;100537.58;;;18.88;78.29
59877;BME280;45749;51.140;17.184;2022-07-24T07:14:05;100534.44;;;18.92;78.41
59877;BME280;45749;51.140;17.184;2022-07-24T07:16:31;100531.09;;;18.98;78.51
59877;BME280;45749;51.140;17.184;2022-07-24T07:18:57;100535.33;;;19.05;77.98
59877;BME280;45749;51.140;17.184;2022-07-24T07:21:23;100535.52;;;19.12;76.43
59877;BME280;45749;51.140;17.184;2022-07-24T07:23:49;100532.34;;;19.16;77.13
59877;BME280;45749;51.140;17.184;2022-07-24T07:26:15;100535.55;;;19.24;76.59
59877;BME280;45749;51.140;17.184;2022-07-24T07:28:41;100537.57;;;19.30;74.76
59877;BME280;45749;51.140;17.184;2022-07-24T07:31:07;100536.59;;;19.35;75.47
59877;BME280;45749;51.140;17.184;2022-07-24T07:33:33;100533.59;;;19.42;74.84
59877;BME280;45749;51.140;17.184;2022-07-24T07:35:59;100539.97;;;19.50;73.01
59877;BME280;45749;51.140;17.184;2022-07-24T07:38:25;100538.30;;;19.53;72.92
59877;BME280;45749;51.140;17.184;2022-07-24T07:40:51;100532.44;;;19.57;71.98
59877;BME280;45749;51.140;17.184;2022-07-24T07:43:17;100534.14;;;19.58;71.24
59877;BME280;45749;51.140;17.184;2022-07-24T07:45:43;100535.98;;;19.62;70.34
59877;BME280;45749;51.140;17.184;2022-07-24T07:48:09;100535.69;;;19.65;70.43
59877;BME280;45749;51.140;17.184;2022-07-24T07:50:35;100541.55;;;19.68;71.04
59877;BME280;45749;51.140;17.184;2022-07-24T07:53:01;100548.73;;;19.72;69.74
59877;BME280;45749;51.140;17.184;2022-07-24T07:55:27;100547.73;;;19.77;69.59
59877;BME280;45749;51.140;17.184;2022-07-24T07:57:53;100552.60;;;19.82;69.46
59877;BME280;45749;51.140;17.184;2022-07-24T08:00:19;100553.43;;;19.86;69.04
59877;BME280;45749;51.140;17.184;2022-07-24T08:02:45;100554.61;;;19.92;68.05
59877;BME280;45749;51.140;17.184;2022-07-24T08:05:11;100553.12;;;19.98;68.51
59877;BME280;45749;51.140;17.184;2022-07-24T08:07:38;100546.92;;;20.01;68.37
59877;BME280;45749;51.140;17.184;2022-07-24T08:10:05;100558.31;;;20.07;66.92
59877;BME280;45749;51.140;17.184;2022-07-24T08:12:32;100557.12;;;20.10;68.05
59877;BME280;45749;51.140;17.184;2022-07-24T08:14:58;100558.30;;;20.15;66.19
59877;BME280;45749;51.140;17.184;2022-07-24T08:17:24;100552.42;;;20.20;67.25
59877;BME280;45749;51.140;17.184;2022-07-24T08:19:50;100552.58;;;20.27;66.18
59877;BME280;45749;51.140;17.184;2022-07-24T08:22:16;100553.61;;;20.34;66.39
59877;BME280;45749;51.140;17.184;2022-07-24T08:24:42;100549.90;;;20.39;66.57
59877;BME280;45749;51.140;17.184;2022-07-24T08:27:08;100544.39;;;20.41;65.34
59877;BME280;45749;51.140;17.184;2022-07-24T08:29:34;100553.92;;;20.39;65.15
59877;BME280;45749;51.140;17.184;2022-07-24T08:32:00;100550.75;;;20.44;65.68
59877;BME280;45749;51.140;17.184;2022-07-24T08:34:26;100559.42;;;20.50;64.40
59877;BME280;45749;51.140;17.184;2022-07-24T08:36:52;100555.27;;;20.55;64.10
59877;BME280;45749;51.140;17.184;2022-07-24T08:39:18;100557.77;;;20.61;64.31
59877;BME280;45749;51.140;17.184;2022-07-24T08:41:44;100552.72;;;20.66;63.52
59877;BME280;45749;51.140;17.184;2022-07-24T08:44:11;100554.58;;;20.70;63.45
59877;BME280;45749;51.140;17.184;2022-07-24T08:46:39;100548.16;;;20.79;63.92
59877;BME280;45749;51.140;17.184;2022-07-24T08:49:09;100548.80;;;20.89;63.86
59877;BME280;45749;51.140;17.184;2022-07-24T08:51:37;100538.05;;;20.97;64.02
59877;BME280;45749;51.140;17.184;2022-07-24T08:54:09;100543.38;;;21.05;63.95
59877;BME280;45749;51.140;17.184;2022-07-24T08:56:33;100539.84;;;21.13;63.20
59877;BME280;45749;51.140;17.184;2022-07-24T08:59:02;100544.00;;;21.20;61.72
59877;BME280;45749;51.140;17.184;2022-07-24T09:01:28;100539.30;;;21.18;62.34
59877;BME280;45749;51.140;17.184;2022-07-24T09:03:55;100541.98;;;21.18;62.79
59877;BME280;45749;51.140;17.184;2022-07-24T09:06:21;100551.83;;;21.29;63.01
59877;BME280;45749;51.140;17.184;2022-07-24T09:09:02;100547.97;;;21.36;62.12
59877;BME280;45749;51.140;17.184;2022-07-24T09:11:29;100547.08;;;21.44;62.35
59877;BME280;45749;51.140;17.184;2022-07-24T09:14:00;100545.36;;;21.51;61.55
59877;BME280;45749;51.140;17.184;2022-07-24T09:16:33;100549.83;;;21.63;61.71
59877;BME280;45749;51.140;17.184;2022-07-24T09:19:06;100556.98;;;21.70;61.75
59877;BME280;45749;51.140;17.184;2022-07-24T09:21:39;100546.55;;;21.71;59.67
59877;BME280;45749;51.140;17.184;2022-07-24T09:24:17;100551.45;;;21.72;60.24
59877;BME280;45749;51.140;17.184;2022-07-24T09:26:52;100551.53;;;21.83;60.32
59877;BME280;45749;51.140;17.184;2022-07-24T09:29:22;100559.00;;;21.91;60.03
59877;BME280;45749;51.140;17.184;2022-07-24T09:32:01;100557.61;;;21.99;59.55
59877;BME280;45749;51.140;17.184;2022-07-24T09:34:29;100553.50;;;22.08;59.22
59877;BME280;45749;51.140;17.184;2022-07-24T09:37:04;100553.48;;;22.16;57.44
59877;BME280;45749;51.140;17.184;2022-07-24T09:39:35;100552.05;;;22.24;56.99
59877;BME280;45749;51.140;17.184;2022-07-24T09:42:04;100555.66;;;22.35;58.22
59877;BME280;45749;51.140;17.184;2022-07-24T09:44:32;100553.91;;;22.42;57.59
59877;BME280;45749;51.140;17.184;2022-07-24T09:47:05;100546.77;;;22.50;57.64
59877;BME280;45749;51.140;17.184;2022-07-24T09:49:34;100553.73;;;22.59;56.25
59877;BME280;45749;51.140;17.184;2022-07-24T09:52:13;100559.73;;;22.65;55.99
59877;BME280;45749;51.140;17.184;2022-07-24T09:54:48;100557.81;;;22.69;55.28
59877;BME280;45749;51.140;17.184;2022-07-24T09:57:24;100556.91;;;22.77;56.04
59877;BME280;45749;51.140;17.184;2022-07-24T10:02:26;100573.53;;;22.96;54.78
59877;BME280;45749;51.140;17.184;2022-07-24T10:04:54;100560.28;;;22.94;55.44
59877;BME280;45749;51.140;17.184;2022-07-24T10:07:22;100561.37;;;23.00;53.85
59877;BME280;45749;51.140;17.184;2022-07-24T10:09:51;100563.31;;;23.06;52.67
59877;BME280;45749;51.140;17.184;2022-07-24T10:12:20;100567.30;;;23.10;53.05
59877;BME280;45749;51.140;17.184;2022-07-24T10:14:51;100553.61;;;23.15;52.03
59877;BME280;45749;51.140;17.184;2022-07-24T10:17:20;100546.81;;;23.20;53.13
59877;BME280;45749;51.140;17.184;2022-07-24T10:19:49;100546.52;;;23.29;52.31
59877;BME280;45749;51.140;17.184;2022-07-24T10:22:19;100541.66;;;23.39;53.57
59877;BME280;45749;51.140;17.184;2022-07-24T10:27:37;100537.22;;;23.57;52.32
59877;BME280;45749;51.140;17.184;2022-07-24T10:30:07;100532.69;;;23.69;52.15
59877;BME280;45749;51.140;17.184;2022-07-24T10:32:36;100531.37;;;23.79;51.99
59877;BME280;45749;51.140;17.184;2022-07-24T10:35:18;100542.37;;;23.95;51.76
59877;BME280;45749;51.140;17.184;2022-07-24T10:40:50;100538.00;;;24.05;50.76
59877;BME280;45749;51.140;17.184;2022-07-24T10:43:20;100533.19;;;24.11;50.60
59877;BME280;45749;51.140;17.184;2022-07-24T10:48:26;100531.81;;;24.32;49.96
59877;BME280;45749;51.140;17.184;2022-07-24T10:53:45;100530.25;;;24.45;48.96
59877;BME280;45749;51.140;17.184;2022-07-24T10:56:24;100529.98;;;24.50;49.54
59877;BME280;45749;51.140;17.184;2022-07-24T11:10:04;100527.70;;;25.30;46.09
59877;BME280;45749;51.140;17.184;2022-07-24T11:12:33;100526.14;;;25.25;46.27
59877;BME280;45749;51.140;17.184;2022-07-24T11:15:02;100513.23;;;25.20;46.38
59877;BME280;45749;51.140;17.184;2022-07-24T11:17:48;100507.83;;;25.20;46.10
59877;BME280;45749;51.140;17.184;2022-07-24T11:20:16;100507.73;;;25.18;45.99
59877;BME280;45749;51.140;17.184;2022-07-24T11:22:56;100506.17;;;25.19;46.52
59877;BME280;45749;51.140;17.184;2022-07-24T11:25:22;100519.67;;;25.19;46.11
59877;BME280;45749;51.140;17.184;2022-07-24T11:28:05;100518.56;;;25.24;46.14
59877;BME280;45749;51.140;17.184;2022-07-24T11:30:37;100498.73;;;25.28;45.13
59877;BME280;45749;51.140;17.184;2022-07-24T11:33:11;100501.86;;;25.32;46.12
59877;BME280;45749;51.140;17.184;2022-07-24T11:35:38;100511.33;;;25.38;45.08
59877;BME280;45749;51.140;17.184;2022-07-24T11:38:07;100508.41;;;25.40;44.19
59877;BME280;45749;51.140;17.184;2022-07-24T11:40:34;100505.00;;;25.42;44.66
59877;BME280;45749;51.140;17.184;2022-07-24T11:43:03;100504.06;;;25.45;44.28
59877;BME280;45749;51.140;17.184;2022-07-24T11:45:31;100490.98;;;25.49;43.92
59877;BME280;45749;51.140;17.184;2022-07-24T11:47:57;100494.63;;;25.52;43.55
59877;BME280;45749;51.140;17.184;2022-07-24T11:50:25;100496.38;;;25.49;43.85
59877;BME280;45749;51.140;17.184;2022-07-24T11:52:53;100491.39;;;25.53;43.67
59877;BME280;45749;51.140;17.184;2022-07-24T11:55:21;100489.33;;;25.55;43.19
59877;BME280;45749;51.140;17.184;2022-07-24T11:57:52;100493.09;;;25.60;44.12
59877;BME280;45749;51.140;17.184;2022-07-24T12:00:23;100493.10;;;25.67;42.51
59877;BME280;45749;51.140;17.184;2022-07-24T12:02:53;100494.64;;;25.65;42.81
59877;BME280;45749;51.140;17.184;2022-07-24T12:05:28;100492.36;;;25.69;41.85
59877;BME280;45749;51.140;17.184;2022-07-24T12:08:14;100499.44;;;25.63;41.20
59877;BME280;45749;51.140;17.184;2022-07-24T12:10:48;100489.98;;;25.63;42.14
59877;BME280;45749;51.140;17.184;2022-07-24T12:13:14;100493.52;;;25.70;41.83
59877;BME280;45749;51.140;17.184;2022-07-24T12:15:41;100501.22;;;25.73;41.60
59877;BME280;45749;51.140;17.184;2022-07-24T12:18:08;100493.52;;;25.77;40.50
59877;BME280;45749;51.140;17.184;2022-07-24T12:20:36;100485.72;;;25.78;40.92
59877;BME280;45749;51.140;17.184;2022-07-24T12:23:09;100483.02;;;25.78;40.75
59877;BME280;45749;51.140;17.184;2022-07-24T12:25:37;100478.36;;;25.83;41.55
59877;BME280;45749;51.140;17.184;2022-07-24T12:28:10;100485.64;;;25.89;40.60
59877;BME280;45749;51.140;17.184;2022-07-24T12:30:40;100474.41;;;25.92;40.74
59877;BME280;45749;51.140;17.184;2022-07-24T12:33:24;100478.36;;;25.96;39.71
59877;BME280;45749;51.140;17.184;2022-07-24T12:41:21;100478.68;;;26.10;38.84
59877;BME280;45749;51.140;17.184;2022-07-24T12:46:29;100467.11;;;26.12;39.44
59877;BME280;45749;51.140;17.184;2022-07-24T12:54:32;100465.33;;;26.29;38.95
59877;BME280;45749;51.140;17.184;2022-07-24T12:57:09;100468.96;;;26.32;37.62
59877;BME280;45749;51.140;17.184;2022-07-24T12:59:41;100462.02;;;26.27;37.86
59877;BME280;45749;51.140;17.184;2022-07-24T13:02:11;100466.25;;;26.32;38.41
59877;BME280;45749;51.140;17.184;2022-07-24T13:04:53;100460.13;;;26.34;37.33
59877;BME280;45749;51.140;17.184;2022-07-24T13:07:24;100470.95;;;26.34;37.74
59877;BME280;45749;51.140;17.184;2022-07-24T13:09:51;100459.41;;;26.36;37.38
59877;BME280;45749;51.140;17.184;2022-07-24T13:12:19;100461.66;;;26.39;37.22
59877;BME280;45749;51.140;17.184;2022-07-24T13:14:46;100461.16;;;26.39;37.32
59877;BME280;45749;51.140;17.184;2022-07-24T13:17:15;100461.98;;;26.40;37.92
59877;BME280;45749;51.140;17.184;2022-07-24T13:19:44;100458.45;;;26.39;37.32
59877;BME280;45749;51.140;17.184;2022-07-24T13:22:13;100446.36;;;26.42;37.31